createdAt,value
2023-04-27T00:00:26.326Z,9.24
2023-04-27T00:02:56.334Z,9.16
2023-04-27T00:05:26.704Z,9.13
2023-04-27T00:07:59.074Z,9.11
2023-04-27T00:10:28.803Z,8.97
2023-04-27T00:12:58.527Z,9.04
2023-04-27T00:15:28.431Z,9.10
2023-04-27T00:17:58.527Z,9.12
2023-04-27T00:20:28.653Z,9.06
2023-04-27T00:23:00.987Z,9.25
2023-04-27T00:25:30.773Z,9.18
2023-04-27T00:28:00.525Z,9.15
2023-04-27T00:30:30.361Z,9.15
2023-04-27T00:33:00.179Z,9.14
2023-04-27T00:35:30.049Z,9.08
2023-04-27T00:38:04.089Z,9.12
2023-04-27T00:40:34.087Z,9.03
2023-04-27T00:43:03.914Z,8.92
2023-04-27T00:45:33.845Z,8.97
2023-04-27T00:48:04.249Z,8.90
2023-04-27T00:50:34.360Z,8.92
2023-04-27T00:53:06.698Z,8.87
2023-04-27T00:55:36.452Z,8.79
2023-04-27T00:58:06.231Z,8.64
2023-04-27T01:00:40.207Z,8.64
2023-04-27T01:03:10.447Z,8.63
2023-04-27T01:05:40.998Z,8.57
2023-04-27T01:08:13.621Z,8.66
2023-04-27T01:10:43.528Z,8.41
2023-04-27T01:13:13.740Z,8.40
2023-04-27T01:15:44.147Z,8.52
2023-04-27T01:18:13.968Z,8.40
2023-04-27T01:20:45.229Z,8.34
2023-04-27T01:23:19.200Z,8.38
2023-04-27T01:25:48.941Z,8.35
2023-04-27T01:28:18.691Z,8.37
2023-04-27T01:30:48.421Z,8.13
2023-04-27T01:33:18.177Z,8.20
2023-04-27T01:35:51.498Z,8.23
2023-04-27T01:38:24.321Z,8.16
2023-04-27T01:40:55.415Z,7.99
2023-04-27T01:43:25.168Z,7.82
2023-04-27T01:45:54.913Z,7.76
2023-04-27T01:48:24.744Z,7.39
2023-04-27T01:50:54.736Z,7.57
2023-04-27T01:53:27.050Z,7.66
2023-04-27T01:55:57.393Z,7.62
2023-04-27T01:58:27.905Z,7.46
2023-04-27T02:00:57.772Z,7.52
2023-04-27T02:03:27.692Z,7.54
2023-04-27T02:05:57.617Z,7.42
2023-04-27T02:08:29.993Z,7.38
2023-04-27T02:10:59.749Z,7.29
2023-04-27T02:13:29.530Z,7.34
2023-04-27T02:16:02.279Z,7.38
2023-04-27T02:18:32.619Z,7.27
2023-04-27T02:21:02.470Z,7.37
2023-04-27T02:23:35.830Z,7.38
2023-04-27T02:26:06.461Z,7.16
2023-04-27T02:28:36.238Z,7.09
2023-04-27T02:31:06.515Z,7.17
2023-04-27T02:33:36.276Z,7.04
2023-04-27T02:36:06.434Z,6.94
2023-04-27T02:38:38.821Z,7.03
2023-04-27T02:41:08.609Z,6.86
2023-04-27T02:43:38.343Z,6.77
2023-04-27T02:46:09.809Z,6.74
2023-04-27T02:48:39.654Z,6.83
2023-04-27T02:51:09.775Z,6.79
2023-04-27T02:53:42.144Z,6.79
2023-04-27T02:56:11.910Z,6.75
2023-04-27T02:58:41.636Z,6.73
2023-04-27T03:01:11.695Z,6.70
2023-04-27T03:03:41.665Z,6.73
2023-04-27T03:06:11.529Z,6.42
2023-04-27T03:08:43.959Z,6.65
2023-04-27T03:11:13.748Z,6.51
2023-04-27T03:13:44.543Z,6.62
2023-04-27T03:16:14.776Z,6.40
2023-04-27T03:18:44.580Z,6.43
2023-04-27T03:21:17.051Z,6.60
2023-04-27T03:23:49.419Z,6.44
2023-04-27T03:26:20.551Z,6.65
2023-04-27T03:28:50.296Z,6.41
2023-04-27T03:31:20.063Z,6.41
2023-04-27T03:33:49.836Z,6.33
2023-04-27T03:36:19.566Z,6.38
2023-04-27T03:38:51.863Z,6.45
2023-04-27T03:41:22.289Z,6.33
2023-04-27T03:43:53.647Z,6.38
2023-04-27T03:46:26.650Z,6.35
2023-04-27T03:48:56.436Z,6.18
2023-04-27T03:51:27.188Z,6.31
2023-04-27T03:53:59.514Z,6.17
2023-04-27T03:56:29.369Z,6.22
2023-04-27T03:58:59.276Z,6.23
2023-04-27T04:01:36.537Z,6.19
2023-04-27T04:04:06.406Z,6.18
2023-04-27T04:06:36.560Z,5.99
2023-04-27T04:09:08.917Z,6.18
2023-04-27T04:11:38.942Z,6.06
2023-04-27T04:14:10.022Z,6.07
2023-04-27T04:16:39.854Z,5.81
2023-04-27T04:19:09.659Z,6.09
2023-04-27T04:21:39.861Z,6.00
2023-04-27T04:24:13.731Z,6.04
2023-04-27T04:26:43.518Z,5.90
2023-04-27T04:29:13.731Z,5.92
2023-04-27T04:31:43.827Z,6.05
2023-04-27T04:34:14.675Z,5.97
2023-04-27T04:36:44.552Z,5.99
2023-04-27T04:39:17.446Z,5.97
2023-04-27T04:41:47.415Z,5.99
2023-04-27T04:44:17.269Z,5.88
2023-04-27T04:46:48.062Z,5.93
2023-04-27T04:49:17.853Z,6.06
2023-04-27T04:51:48.154Z,6.11
2023-04-27T04:54:20.532Z,6.43
2023-04-27T04:56:51.120Z,6.47
2023-04-27T04:59:21.520Z,6.58
2023-04-27T05:01:51.372Z,6.66
2023-04-27T05:04:21.508Z,6.79
2023-04-27T05:06:51.398Z,6.76
2023-04-27T05:09:23.711Z,6.86
2023-04-27T05:11:53.428Z,6.83
2023-04-27T05:14:23.182Z,6.82
2023-04-27T05:16:52.918Z,6.97
2023-04-27T05:19:22.717Z,6.88
2023-04-27T05:21:52.472Z,6.99
2023-04-27T05:24:24.814Z,7.16
2023-04-27T05:26:54.590Z,7.23
2023-04-27T05:29:24.782Z,7.34
2023-04-27T05:31:54.611Z,7.53
2023-04-27T05:34:24.441Z,7.56
2023-04-27T05:36:54.190Z,7.72
2023-04-27T05:39:26.563Z,7.79
2023-04-27T05:41:56.457Z,7.75
2023-04-27T05:44:29.491Z,7.85
2023-04-27T05:46:59.316Z,8.12
2023-04-27T05:49:29.062Z,8.54
2023-04-27T05:51:59.236Z,8.67
2023-04-27T05:54:31.937Z,8.72
2023-04-27T05:57:01.765Z,8.68
2023-04-27T05:59:31.684Z,9.03
2023-04-27T06:02:01.515Z,9.23
2023-04-27T06:04:33.007Z,9.20
2023-04-27T06:07:04.264Z,9.50
2023-04-27T06:09:36.967Z,9.48
2023-04-27T06:12:07.358Z,9.88
2023-04-27T06:14:39.789Z,10.19
2023-04-27T06:17:09.547Z,10.47
2023-04-27T06:19:39.447Z,10.58
2023-04-27T06:22:09.186Z,10.68
2023-04-27T06:24:42.707Z,10.70
2023-04-27T06:27:13.363Z,10.96
2023-04-27T06:29:43.129Z,11.29
2023-04-27T06:32:12.890Z,11.51
2023-04-27T06:34:42.709Z,11.50
2023-04-27T06:37:12.545Z,11.55
2023-04-27T06:39:44.917Z,11.46
2023-04-27T06:42:14.860Z,11.71
2023-04-27T06:44:45.068Z,11.59
2023-04-27T06:47:14.854Z,11.45
2023-04-27T06:49:44.584Z,11.62
2023-04-27T06:52:14.362Z,11.72
2023-04-27T06:54:46.959Z,11.12
2023-04-27T06:57:16.798Z,11.29
2023-04-27T06:59:46.600Z,11.35
2023-04-27T07:02:16.431Z,11.25
2023-04-27T07:04:46.769Z,11.29
2023-04-27T07:07:16.592Z,11.17
2023-04-27T07:09:48.942Z,11.19
2023-04-27T07:12:18.799Z,11.19
2023-04-27T07:14:50.870Z,11.30
2023-04-27T07:17:20.917Z,10.92
2023-04-27T07:19:50.760Z,11.14
2023-04-27T07:22:20.786Z,11.01
2023-04-27T07:24:53.473Z,11.16
2023-04-27T07:27:23.333Z,11.22
2023-04-27T07:29:53.507Z,10.16
2023-04-27T07:32:24.017Z,11.35
2023-04-27T07:34:54.542Z,10.80
2023-04-27T07:37:24.604Z,10.77
2023-04-27T07:39:57.898Z,10.84
2023-04-27T07:42:27.905Z,10.88
2023-04-27T07:44:57.732Z,10.79
2023-04-27T07:47:28.271Z,10.96
2023-04-27T07:49:58.133Z,11.15
2023-04-27T07:52:27.940Z,10.96
2023-04-27T07:55:00.255Z,11.35
2023-04-27T07:57:30.194Z,11.42
2023-04-27T08:00:00.330Z,11.22
2023-04-27T08:02:31.873Z,11.42
2023-04-27T08:05:03.121Z,11.28
2023-04-27T08:07:34.632Z,11.55
2023-04-27T08:10:11.126Z,11.48
2023-04-27T08:12:40.927Z,11.46
2023-04-27T08:15:12.231Z,11.46
2023-04-27T08:17:43.803Z,11.42
2023-04-27T08:20:14.799Z,11.28
2023-04-27T08:22:44.998Z,11.01
2023-04-27T08:25:17.347Z,11.23
2023-04-27T08:27:47.118Z,11.14
2023-04-27T08:30:17.400Z,11.11
2023-04-27T08:32:47.887Z,11.39
2023-04-27T08:35:17.869Z,11.61
2023-04-27T08:37:47.629Z,11.88
2023-04-27T08:40:20.614Z,11.93
2023-04-27T08:42:58.003Z,11.78
2023-04-27T08:45:28.997Z,11.88
2023-04-27T08:47:58.780Z,11.82
2023-04-27T08:50:28.824Z,11.70
2023-04-27T08:52:58.695Z,11.81
2023-04-27T08:55:31.160Z,12.16
2023-04-27T08:58:01.880Z,11.98
2023-04-27T09:00:42.386Z,12.17
2023-04-27T09:03:22.362Z,12.28
2023-04-27T09:06:03.444Z,12.24
2023-04-27T09:08:44.621Z,12.10
2023-04-27T09:11:17.280Z,12.21
2023-04-27T09:13:47.903Z,12.22
2023-04-27T09:16:17.771Z,12.26
2023-04-27T09:18:47.520Z,12.60
2023-04-27T09:21:25.878Z,12.68
2023-04-27T09:23:56.545Z,12.70
2023-04-27T09:26:32.008Z,12.76
2023-04-27T09:29:01.768Z,13.20
2023-04-27T09:31:34.610Z,13.34
2023-04-27T09:34:05.200Z,13.31
2023-04-27T09:36:35.146Z,13.42
2023-04-27T09:39:07.323Z,13.51
2023-04-27T09:41:39.820Z,13.26
2023-04-27T09:44:11.238Z,13.35
2023-04-27T09:46:41.335Z,13.23
2023-04-27T09:49:11.812Z,13.18
2023-04-27T09:51:41.746Z,13.37
2023-04-27T09:54:14.026Z,13.34
2023-04-27T09:56:54.029Z,13.50
2023-04-27T09:59:39.330Z,13.49
2023-04-27T10:02:23.587Z,13.49
2023-04-27T10:05:19.660Z,13.74
2023-04-27T10:07:49.892Z,13.75
2023-04-27T10:10:20.925Z,13.77
2023-04-27T10:13:04.562Z,13.87
2023-04-27T10:15:34.495Z,13.82
2023-04-27T10:18:08.879Z,14.51
2023-04-27T10:20:41.114Z,14.52
2023-04-27T10:23:10.912Z,14.43
2023-04-27T10:25:42.148Z,14.40
2023-04-27T10:28:20.767Z,14.18
2023-04-27T10:30:52.104Z,13.84
2023-04-27T10:33:25.328Z,13.90
2023-04-27T10:36:00.555Z,13.96
2023-04-27T10:38:33.277Z,14.18
2023-04-27T10:41:05.820Z,14.44
2023-04-27T10:43:39.189Z,14.63
2023-04-27T10:46:14.512Z,14.80
2023-04-27T10:48:44.557Z,15.07
2023-04-27T10:51:18.518Z,14.83
2023-04-27T10:53:48.286Z,14.51
2023-04-27T10:56:20.381Z,14.35
2023-04-27T10:58:52.829Z,14.06
2023-04-27T11:01:29.949Z,13.94
2023-04-27T11:04:00.954Z,13.80
2023-04-27T11:06:32.308Z,13.95
2023-04-27T11:09:02.384Z,13.61
2023-04-27T11:11:40.092Z,13.40
2023-04-27T11:14:12.648Z,13.54
2023-04-27T11:16:49.102Z,13.60
2023-04-27T11:19:18.835Z,13.72
2023-04-27T11:21:48.583Z,13.84
2023-04-27T11:24:18.326Z,13.84
2023-04-27T11:26:54.950Z,13.93
2023-04-27T11:29:27.336Z,13.96
2023-04-27T11:31:57.090Z,13.87
2023-04-27T11:34:28.003Z,14.29
2023-04-27T11:37:16.700Z,14.25
2023-04-27T11:39:48.674Z,14.06
2023-04-27T11:42:20.829Z,14.07
2023-04-27T11:45:01.909Z,13.74
2023-04-27T11:47:33.988Z,14.04
2023-04-27T11:50:05.271Z,14.01
2023-04-27T11:52:36.792Z,14.20
2023-04-27T11:55:09.166Z,14.10
2023-04-27T11:57:39.587Z,13.92
2023-04-27T12:00:14.751Z,14.04
2023-04-27T12:02:46.568Z,14.05
2023-04-27T12:05:17.517Z,13.84
2023-04-27T12:07:47.424Z,13.89
2023-04-27T12:10:17.370Z,13.95
2023-04-27T12:12:47.147Z,13.90
2023-04-27T12:15:19.715Z,14.32
2023-04-27T12:17:49.588Z,14.42
2023-04-27T12:20:19.578Z,13.92
2023-04-27T12:22:49.350Z,14.33
2023-04-27T12:25:19.911Z,14.23
2023-04-27T12:27:50.312Z,14.61
2023-04-27T12:30:23.230Z,14.56
2023-04-27T12:32:53.099Z,14.66
2023-04-27T12:35:22.931Z,14.63
2023-04-27T12:37:52.928Z,14.71
2023-04-27T12:40:23.440Z,14.58
2023-04-27T12:42:53.232Z,14.22
2023-04-27T12:45:25.582Z,14.13
2023-04-27T12:48:03.395Z,14.25
2023-04-27T12:50:34.531Z,14.33
2023-04-27T12:53:05.029Z,14.31
2023-04-27T12:55:34.934Z,14.29
2023-04-27T12:58:04.963Z,14.28
2023-04-27T13:00:37.359Z,14.21
2023-04-27T13:03:08.040Z,14.27
2023-04-27T13:05:38.459Z,14.68
2023-04-27T13:08:08.509Z,14.74
2023-04-27T13:10:38.293Z,14.53
2023-04-27T13:13:08.057Z,14.35
2023-04-27T13:15:40.657Z,14.05
2023-04-27T13:18:10.575Z,14.38
2023-04-27T13:20:40.338Z,14.54
2023-04-27T13:23:10.240Z,14.66
2023-04-27T13:25:39.973Z,14.53
2023-04-27T13:28:09.736Z,14.55
2023-04-27T13:30:42.079Z,14.66
2023-04-27T13:33:22.710Z,14.80
2023-04-27T13:35:53.762Z,15.01
2023-04-27T13:38:23.592Z,15.26
2023-04-27T13:40:53.299Z,15.25
2023-04-27T13:43:23.135Z,15.11
2023-04-27T13:45:57.215Z,15.23
2023-04-27T13:48:28.594Z,14.88
2023-04-27T13:50:58.729Z,15.19
2023-04-27T13:53:29.171Z,15.37
2023-04-27T13:56:00.780Z,15.18
2023-04-27T13:58:30.962Z,15.34
2023-04-27T14:01:03.465Z,15.23
2023-04-27T14:03:34.042Z,14.91
2023-04-27T14:06:04.315Z,15.06
2023-04-27T14:08:34.458Z,15.16
2023-04-27T14:11:04.306Z,15.06
2023-04-27T14:13:34.105Z,14.95
2023-04-27T14:16:06.882Z,14.97
2023-04-27T14:18:36.706Z,15.31
2023-04-27T14:21:07.547Z,15.34
2023-04-27T14:23:37.788Z,15.29
2023-04-27T14:26:07.858Z,15.31
2023-04-27T14:28:37.634Z,15.31
2023-04-27T14:31:09.963Z,15.11
2023-04-27T14:33:40.511Z,15.54
2023-04-27T14:36:10.733Z,15.67
2023-04-27T14:38:40.547Z,15.88
2023-04-27T14:41:10.879Z,15.87
2023-04-27T14:43:40.617Z,15.40
2023-04-27T14:48:49.855Z,15.65
2023-04-27T14:51:19.790Z,15.09
2023-04-27T14:53:49.558Z,15.11
2023-04-27T14:56:19.316Z,15.39
2023-04-27T14:58:49.050Z,15.32
2023-04-27T15:01:21.683Z,15.52
2023-04-27T15:03:53.246Z,15.37
2023-04-27T15:06:24.408Z,15.36
2023-04-27T15:08:54.162Z,15.47
2023-04-27T15:11:23.914Z,15.26
2023-04-27T15:13:53.713Z,15.31
2023-04-27T15:16:26.188Z,15.28
2023-04-27T15:18:55.929Z,15.28
2023-04-27T15:21:25.666Z,15.37
2023-04-27T15:23:55.485Z,15.39
2023-04-27T15:26:25.309Z,15.44
2023-04-27T15:28:55.164Z,15.52
2023-04-27T15:31:27.647Z,15.53
2023-04-27T15:33:57.434Z,15.27
2023-04-27T15:36:28.595Z,14.86
2023-04-27T15:38:58.358Z,15.00
2023-04-27T15:41:28.112Z,15.05
2023-04-27T15:43:57.861Z,15.02
2023-04-27T15:46:30.596Z,14.91
2023-04-27T15:49:00.367Z,14.95
2023-04-27T15:51:30.102Z,14.98
2023-04-27T15:53:59.874Z,15.08
2023-04-27T15:56:30.897Z,15.05
2023-04-27T15:59:01.016Z,14.87
2023-04-27T16:01:33.402Z,14.89
2023-04-27T16:04:03.391Z,14.81
2023-04-27T16:06:34.890Z,14.77
2023-04-27T16:09:09.817Z,14.76
2023-04-27T16:11:40.245Z,14.82
2023-04-27T16:14:09.967Z,14.56
2023-04-27T16:16:42.340Z,14.84
2023-04-27T16:19:12.474Z,14.75
2023-04-27T16:21:42.398Z,14.87
2023-04-27T16:24:12.604Z,14.79
2023-04-27T16:26:42.321Z,14.94
2023-04-27T16:29:12.237Z,14.95
2023-04-27T16:31:45.650Z,14.85
2023-04-27T16:34:15.506Z,14.88
2023-04-27T16:36:46.866Z,14.97
2023-04-27T16:39:19.050Z,15.05
2023-04-27T16:41:48.875Z,14.90
2023-04-27T16:44:18.916Z,14.74
2023-04-27T16:46:52.140Z,14.65
2023-04-27T16:49:21.943Z,14.60
2023-04-27T16:51:52.846Z,14.51
2023-04-27T16:54:22.664Z,14.36
2023-04-27T16:56:54.591Z,14.27
2023-04-27T16:59:25.079Z,14.26
2023-04-27T17:02:00.010Z,14.25
2023-04-27T17:04:40.120Z,14.14
2023-04-27T17:07:09.965Z,14.24
2023-04-27T17:09:40.104Z,14.23
2023-04-27T17:12:12.375Z,14.26
2023-04-27T17:14:42.740Z,14.27
2023-04-27T17:17:15.305Z,14.33
2023-04-27T17:19:45.038Z,14.19
2023-04-27T17:22:15.127Z,14.18
2023-04-27T17:24:44.897Z,14.26
2023-04-27T17:27:14.618Z,14.12
2023-04-27T17:29:44.430Z,14.23
2023-04-27T17:32:17.384Z,14.21
2023-04-27T17:34:47.182Z,14.12
2023-04-27T17:37:17.061Z,14.10
2023-04-27T17:39:47.585Z,14.00
2023-04-27T17:42:17.299Z,14.01
2023-04-27T17:44:47.032Z,13.93
2023-04-27T17:47:20.640Z,14.08
2023-04-27T17:49:50.351Z,13.99
2023-04-27T17:52:20.086Z,13.92
2023-04-27T17:54:49.849Z,13.75
2023-04-27T17:57:19.608Z,13.58
2023-04-27T17:59:50.164Z,13.70
2023-04-27T18:02:22.874Z,13.71
2023-04-27T18:04:53.021Z,13.76
2023-04-27T18:07:22.962Z,13.71
2023-04-27T18:09:52.772Z,13.71
2023-04-27T18:12:22.595Z,13.61
2023-04-27T18:14:53.138Z,13.56
2023-04-27T18:17:26.162Z,13.44
2023-04-27T18:20:07.521Z,13.35
2023-04-27T18:22:40.202Z,13.11
2023-04-27T18:25:12.023Z,13.21
2023-04-27T18:27:41.932Z,13.21
2023-04-27T18:30:12.029Z,13.16
2023-04-27T18:32:44.375Z,12.81
2023-04-27T18:35:14.160Z,13.00
2023-04-27T18:37:48.292Z,13.00
2023-04-27T18:40:18.978Z,12.90
2023-04-27T18:42:48.898Z,13.00
2023-04-27T18:45:18.842Z,12.89
2023-04-27T18:47:51.253Z,12.93
2023-04-27T18:50:21.144Z,12.85
2023-04-27T18:52:50.902Z,12.77
2023-04-27T18:55:20.929Z,13.04
2023-04-27T18:57:50.688Z,13.07
2023-04-27T19:00:20.512Z,13.15
2023-04-27T19:02:53.408Z,13.14
2023-04-27T19:05:23.367Z,12.98
2023-04-27T19:07:53.164Z,13.17
2023-04-27T19:10:23.937Z,13.07
2023-04-27T19:12:54.229Z,13.03
2023-04-27T19:15:24.280Z,12.99
2023-04-27T19:18:02.832Z,12.64
2023-04-27T19:20:39.578Z,12.91
2023-04-27T19:23:12.654Z,12.57
2023-04-27T19:25:43.141Z,12.85
2023-04-27T19:28:13.317Z,12.83
2023-04-27T19:30:43.471Z,12.98
2023-04-27T19:33:17.565Z,13.00
2023-04-27T19:35:49.151Z,12.90
2023-04-27T19:38:18.934Z,12.84
2023-04-27T19:40:49.974Z,12.93
2023-04-27T19:43:19.690Z,12.90
2023-04-27T19:45:49.693Z,12.94
2023-04-27T19:48:22.060Z,13.01
2023-04-27T19:50:51.865Z,12.90
2023-04-27T19:53:21.588Z,12.82
2023-04-27T19:55:51.530Z,12.70
2023-04-27T19:58:21.708Z,12.73
2023-04-27T20:00:51.620Z,12.55
2023-04-27T20:03:24.468Z,12.49
2023-04-27T20:05:54.571Z,12.44
2023-04-27T20:08:24.858Z,12.26
2023-04-27T20:10:54.614Z,12.15
2023-04-27T20:13:24.387Z,11.12
2023-04-27T20:15:54.265Z,12.07
2023-04-27T20:18:31.604Z,11.98
2023-04-27T20:21:01.654Z,11.90
2023-04-27T20:23:31.618Z,11.94
2023-04-27T20:26:01.377Z,12.06
2023-04-27T20:28:31.338Z,12.06
2023-04-27T20:31:01.102Z,11.96
2023-04-27T20:33:33.422Z,12.02
2023-04-27T20:36:14.260Z,11.96
2023-04-27T20:38:47.423Z,11.87
2023-04-27T20:41:17.276Z,11.63
2023-04-27T20:43:47.604Z,11.68
2023-04-27T20:46:17.401Z,11.62
2023-04-27T20:48:49.906Z,11.81
2023-04-27T20:51:19.663Z,11.65
2023-04-27T20:53:49.455Z,11.81
2023-04-27T20:56:20.305Z,11.66
2023-04-27T20:58:50.039Z,11.42
2023-04-27T21:01:19.895Z,11.37
2023-04-27T21:03:52.586Z,11.22
2023-04-27T21:06:22.487Z,11.09
2023-04-27T21:08:52.217Z,11.20
2023-04-27T21:11:22.238Z,11.14
2023-04-27T21:13:52.118Z,11.07
2023-04-27T21:16:22.019Z,10.93
2023-04-27T21:18:54.311Z,10.65
2023-04-27T21:21:24.577Z,10.88
2023-04-27T21:24:00.804Z,10.85
2023-04-27T21:26:36.819Z,10.79
2023-04-27T21:29:08.360Z,10.79
2023-04-27T21:31:38.345Z,10.69
2023-04-27T21:34:10.964Z,10.88
2023-04-27T21:36:40.692Z,10.66
2023-04-27T21:39:10.711Z,10.66
2023-04-27T21:41:41.232Z,10.67
2023-04-27T21:44:11.513Z,10.61
2023-04-27T21:46:41.415Z,10.53
2023-04-27T21:49:13.819Z,10.35
2023-04-27T21:51:43.615Z,10.42
2023-04-27T21:54:13.793Z,10.41
2023-04-27T21:56:43.848Z,10.35
2023-04-27T21:59:13.604Z,10.30
2023-04-27T22:01:44.062Z,10.11
2023-04-27T22:04:16.979Z,10.22
2023-04-27T22:06:47.099Z,10.11
2023-04-27T22:09:17.111Z,10.25
2023-04-27T22:11:47.057Z,10.32
2023-04-27T22:14:17.360Z,10.34
2023-04-27T22:16:49.008Z,10.25
2023-04-27T22:19:21.383Z,9.96
2023-04-27T22:21:51.149Z,10.07
2023-04-27T22:24:20.917Z,9.97
2023-04-27T22:26:50.994Z,9.98
2023-04-27T22:29:20.870Z,10.07
2023-04-27T22:31:50.747Z,9.83
2023-04-27T22:34:23.157Z,9.95
2023-04-27T22:36:53.015Z,10.10
2023-04-27T22:39:22.823Z,9.92
2023-04-27T22:41:52.661Z,9.84
2023-04-27T22:44:22.419Z,9.87
2023-04-27T22:46:52.307Z,9.85
2023-04-27T22:49:24.823Z,9.82
2023-04-27T22:51:57.789Z,9.64
2023-04-27T22:54:27.560Z,9.47
2023-04-27T22:56:58.776Z,9.41
2023-04-27T22:59:28.594Z,9.42
2023-04-27T23:01:58.499Z,9.46
2023-04-27T23:04:31.062Z,9.41
2023-04-27T23:07:00.825Z,9.45
2023-04-27T23:09:31.162Z,9.17
2023-04-27T23:12:01.256Z,9.39
2023-04-27T23:14:31.551Z,9.34
2023-04-27T23:17:01.979Z,8.97
2023-04-27T23:19:34.383Z,9.32
2023-04-27T23:22:04.399Z,9.28
2023-04-27T23:24:34.154Z,9.22
2023-04-27T23:27:04.030Z,9.05
2023-04-27T23:29:33.802Z,9.04
2023-04-27T23:32:04.710Z,9.12
2023-04-27T23:34:37.197Z,9.06
2023-04-27T23:37:07.814Z,9.24
2023-04-27T23:39:37.639Z,9.19
2023-04-27T23:42:07.787Z,8.99
2023-04-27T23:44:37.785Z,9.20
2023-04-27T23:47:07.793Z,9.33
2023-04-27T23:49:40.218Z,9.35
2023-04-27T23:52:10.007Z,8.92
2023-04-27T23:54:39.813Z,9.02
2023-04-27T23:57:09.657Z,8.40
2023-04-27T23:59:39.712Z,8.97
